sensor_id;sensor_type;location;lat;lon;timestamp;P1;durP1;ratioP1;P2;durP2;ratioP2
60030;SDS011;45901;47.600;9.890;2023-05-10T00:02:14;0.67;;;0.30;;
60030;SDS011;45901;47.600;9.890;2023-05-10T00:04:41;0.53;;;0.23;;
60030;SDS011;45901;47.600;9.890;2023-05-10T00:07:08;0.30;;;0.20;;
60030;SDS011;45901;47.600;9.890;2023-05-10T00:09:36;0.50;;;0.20;;
60030;SDS011;45901;47.600;9.890;2023-05-10T00:12:04;1.17;;;0.20;;
60030;SDS011;45901;47.600;9.890;2023-05-10T00:14:32;1.77;;;0.20;;
60030;SDS011;45901;47.600;9.890;2023-05-10T00:17:00;0.63;;;0.30;;
60030;SDS011;45901;47.600;9.890;2023-05-10T00:19:29;0.50;;;0.30;;
60030;SDS011;45901;47.600;9.890;2023-05-10T00:21:56;0.70;;;0.30;;
60030;SDS011;45901;47.600;9.890;2023-05-10T00:24:23;0.50;;;0.20;;
60030;SDS011;45901;47.600;9.890;2023-05-10T00:26:51;0.60;;;0.30;;
60030;SDS011;45901;47.600;9.890;2023-05-10T00:29:18;0.20;;;0.20;;
60030;SDS011;45901;47.600;9.890;2023-05-10T00:31:45;0.63;;;0.30;;
60030;SDS011;45901;47.600;9.890;2023-05-10T00:34:13;0.37;;;0.30;;
60030;SDS011;45901;47.600;9.890;2023-05-10T00:36:42;0.40;;;0.30;;
60030;SDS011;45901;47.600;9.890;2023-05-10T00:39:09;1.20;;;0.40;;
60030;SDS011;45901;47.600;9.890;2023-05-10T00:41:37;0.70;;;0.40;;
60030;SDS011;45901;47.600;9.890;2023-05-10T00:44:04;0.80;;;0.30;;
60030;SDS011;45901;47.600;9.890;2023-05-10T00:46:32;2.10;;;0.60;;
60030;SDS011;45901;47.600;9.890;2023-05-10T00:49:00;0.77;;;0.40;;
60030;SDS011;45901;47.600;9.890;2023-05-10T00:51:27;0.77;;;0.30;;
60030;SDS011;45901;47.600;9.890;2023-05-10T00:53:57;0.93;;;0.40;;
60030;SDS011;45901;47.600;9.890;2023-05-10T00:56:25;0.30;;;0.20;;
60030;SDS011;45901;47.600;9.890;2023-05-10T00:58:54;2.87;;;0.20;;
60030;SDS011;45901;47.600;9.890;2023-05-10T01:01:22;0.20;;;0.20;;
60030;SDS011;45901;47.600;9.890;2023-05-10T01:03:50;1.10;;;0.20;;
60030;SDS011;45901;47.600;9.890;2023-05-10T01:06:18;0.73;;;0.20;;
60030;SDS011;45901;47.600;9.890;2023-05-10T01:08:46;0.40;;;0.20;;
60030;SDS011;45901;47.600;9.890;2023-05-10T01:11:15;2.03;;;0.20;;
60030;SDS011;45901;47.600;9.890;2023-05-10T01:13:42;0.57;;;0.30;;
60030;SDS011;45901;47.600;9.890;2023-05-10T01:16:13;0.10;;;0.10;;
60030;SDS011;45901;47.600;9.890;2023-05-10T01:18:41;0.20;;;0.17;;
60030;SDS011;45901;47.600;9.890;2023-05-10T01:21:15;0.20;;;0.20;;
60030;SDS011;45901;47.600;9.890;2023-05-10T01:23:59;0.10;;;0.10;;
60030;SDS011;45901;47.600;9.890;2023-05-10T01:33:36;0.20;;;0.17;;
60030;SDS011;45901;47.600;9.890;2023-05-10T01:36:12;0.97;;;0.23;;
60030;SDS011;45901;47.600;9.890;2023-05-10T01:38:51;0.30;;;0.20;;
60030;SDS011;45901;47.600;9.890;2023-05-10T01:41:27;0.67;;;0.30;;
60030;SDS011;45901;47.600;9.890;2023-05-10T01:44:08;0.70;;;0.40;;
60030;SDS011;45901;47.600;9.890;2023-05-10T01:46:44;1.20;;;0.53;;
60030;SDS011;45901;47.600;9.890;2023-05-10T01:49:20;1.13;;;0.43;;
60030;SDS011;45901;47.600;9.890;2023-05-10T01:51:53;0.50;;;0.40;;
60030;SDS011;45901;47.600;9.890;2023-05-10T01:54:25;2.60;;;0.37;;
60030;SDS011;45901;47.600;9.890;2023-05-10T01:56:56;2.10;;;0.60;;
60030;SDS011;45901;47.600;9.890;2023-05-10T01:59:34;1.20;;;0.40;;
60030;SDS011;45901;47.600;9.890;2023-05-10T02:02:05;0.93;;;0.40;;
60030;SDS011;45901;47.600;9.890;2023-05-10T02:04:38;1.23;;;0.47;;
60030;SDS011;45901;47.600;9.890;2023-05-10T02:07:06;0.40;;;0.40;;
60030;SDS011;45901;47.600;9.890;2023-05-10T02:09:35;1.13;;;0.60;;
60030;SDS011;45901;47.600;9.890;2023-05-10T02:12:04;2.03;;;0.50;;
60030;SDS011;45901;47.600;9.890;2023-05-10T02:14:34;1.27;;;0.40;;
60030;SDS011;45901;47.600;9.890;2023-05-10T02:17:03;0.43;;;0.40;;
60030;SDS011;45901;47.600;9.890;2023-05-10T02:19:33;0.70;;;0.30;;
60030;SDS011;45901;47.600;9.890;2023-05-10T02:22:05;1.93;;;0.40;;
60030;SDS011;45901;47.600;9.890;2023-05-10T02:24:34;0.50;;;0.40;;
60030;SDS011;45901;47.600;9.890;2023-05-10T02:27:05;1.27;;;0.40;;
60030;SDS011;45901;47.600;9.890;2023-05-10T02:29:34;1.10;;;0.50;;
60030;SDS011;45901;47.600;9.890;2023-05-10T02:32:03;0.73;;;0.33;;
60030;SDS011;45901;47.600;9.890;2023-05-10T02:34:32;0.40;;;0.40;;
60030;SDS011;45901;47.600;9.890;2023-05-10T02:37:00;0.60;;;0.50;;
60030;SDS011;45901;47.600;9.890;2023-05-10T02:39:31;1.43;;;0.80;;
60030;SDS011;45901;47.600;9.890;2023-05-10T02:41:59;1.30;;;0.70;;
60030;SDS011;45901;47.600;9.890;2023-05-10T02:44:28;4.07;;;0.73;;
60030;SDS011;45901;47.600;9.890;2023-05-10T02:46:57;1.47;;;0.50;;
60030;SDS011;45901;47.600;9.890;2023-05-10T02:49:25;0.67;;;0.50;;
60030;SDS011;45901;47.600;9.890;2023-05-10T02:51:55;1.80;;;0.50;;
60030;SDS011;45901;47.600;9.890;2023-05-10T02:54:29;2.00;;;0.70;;
60030;SDS011;45901;47.600;9.890;2023-05-10T02:57:04;2.20;;;0.50;;
60030;SDS011;45901;47.600;9.890;2023-05-10T02:59:33;0.40;;;0.40;;
60030;SDS011;45901;47.600;9.890;2023-05-10T03:02:00;0.70;;;0.63;;
60030;SDS011;45901;47.600;9.890;2023-05-10T03:04:31;1.20;;;0.73;;
60030;SDS011;45901;47.600;9.890;2023-05-10T03:06:59;1.63;;;0.67;;
60030;SDS011;45901;47.600;9.890;2023-05-10T03:09:26;1.77;;;0.60;;
60030;SDS011;45901;47.600;9.890;2023-05-10T03:11:56;1.80;;;0.70;;
60030;SDS011;45901;47.600;9.890;2023-05-10T03:14:41;1.53;;;0.70;;
60030;SDS011;45901;47.600;9.890;2023-05-10T03:17:18;1.97;;;0.70;;
60030;SDS011;45901;47.600;9.890;2023-05-10T03:19:53;1.27;;;0.57;;
60030;SDS011;45901;47.600;9.890;2023-05-10T03:22:24;0.83;;;0.60;;
60030;SDS011;45901;47.600;9.890;2023-05-10T03:24:57;2.03;;;0.90;;
60030;SDS011;45901;47.600;9.890;2023-05-10T03:27:28;1.23;;;1.03;;
60030;SDS011;45901;47.600;9.890;2023-05-10T03:29:57;1.83;;;1.10;;
60030;SDS011;45901;47.600;9.890;2023-05-10T03:32:25;3.27;;;1.00;;
60030;SDS011;45901;47.600;9.890;2023-05-10T03:34:53;1.40;;;1.07;;
60030;SDS011;45901;47.600;9.890;2023-05-10T03:37:20;1.50;;;1.10;;
60030;SDS011;45901;47.600;9.890;2023-05-10T03:39:48;1.97;;;1.10;;
60030;SDS011;45901;47.600;9.890;2023-05-10T03:42:16;0.57;;;0.53;;
60030;SDS011;45901;47.600;9.890;2023-05-10T03:44:45;1.80;;;1.00;;
60030;SDS011;45901;47.600;9.890;2023-05-10T03:47:14;1.40;;;1.00;;
60030;SDS011;45901;47.600;9.890;2023-05-10T03:49:41;1.20;;;0.80;;
60030;SDS011;45901;47.600;9.890;2023-05-10T03:52:09;3.30;;;1.23;;
60030;SDS011;45901;47.600;9.890;2023-05-10T03:54:36;1.67;;;1.00;;
60030;SDS011;45901;47.600;9.890;2023-05-10T03:57:03;2.20;;;1.30;;
60030;SDS011;45901;47.600;9.890;2023-05-10T03:59:31;1.83;;;0.87;;
60030;SDS011;45901;47.600;9.890;2023-05-10T04:01:59;1.57;;;1.00;;
60030;SDS011;45901;47.600;9.890;2023-05-10T04:04:27;2.43;;;0.90;;
60030;SDS011;45901;47.600;9.890;2023-05-10T04:06:55;1.87;;;0.90;;
60030;SDS011;45901;47.600;9.890;2023-05-10T04:09:22;4.50;;;1.23;;
60030;SDS011;45901;47.600;9.890;2023-05-10T04:11:50;2.10;;;1.10;;
60030;SDS011;45901;47.600;9.890;2023-05-10T04:14:17;1.33;;;1.20;;
60030;SDS011;45901;47.600;9.890;2023-05-10T04:16:45;1.20;;;1.10;;
60030;SDS011;45901;47.600;9.890;2023-05-10T04:19:13;2.20;;;1.27;;
60030;SDS011;45901;47.600;9.890;2023-05-10T04:21:41;1.63;;;0.90;;
60030;SDS011;45901;47.600;9.890;2023-05-10T04:24:09;1.63;;;0.97;;
60030;SDS011;45901;47.600;9.890;2023-05-10T04:26:36;2.50;;;1.20;;
60030;SDS011;45901;47.600;9.890;2023-05-10T04:29:03;1.40;;;1.30;;
60030;SDS011;45901;47.600;9.890;2023-05-10T04:31:31;2.50;;;1.20;;
60030;SDS011;45901;47.600;9.890;2023-05-10T04:33:59;2.07;;;1.50;;
60030;SDS011;45901;47.600;9.890;2023-05-10T04:36:28;1.20;;;1.10;;
60030;SDS011;45901;47.600;9.890;2023-05-10T04:38:55;1.43;;;1.20;;
60030;SDS011;45901;47.600;9.890;2023-05-10T04:41:22;4.00;;;1.10;;
60030;SDS011;45901;47.600;9.890;2023-05-10T04:43:50;3.83;;;1.20;;
60030;SDS011;45901;47.600;9.890;2023-05-10T04:46:17;4.63;;;1.30;;
60030;SDS011;45901;47.600;9.890;2023-05-10T04:48:45;1.50;;;1.20;;
60030;SDS011;45901;47.600;9.890;2023-05-10T04:51:13;1.40;;;1.20;;
60030;SDS011;45901;47.600;9.890;2023-05-10T04:53:41;1.33;;;1.20;;
60030;SDS011;45901;47.600;9.890;2023-05-10T04:56:09;1.90;;;1.23;;
60030;SDS011;45901;47.600;9.890;2023-05-10T04:58:36;3.00;;;1.27;;
60030;SDS011;45901;47.600;9.890;2023-05-10T05:01:07;3.70;;;1.10;;
60030;SDS011;45901;47.600;9.890;2023-05-10T05:03:35;1.37;;;1.20;;
60030;SDS011;45901;47.600;9.890;2023-05-10T05:06:03;2.00;;;1.33;;
60030;SDS011;45901;47.600;9.890;2023-05-10T05:08:31;3.47;;;1.27;;
60030;SDS011;45901;47.600;9.890;2023-05-10T05:11:00;2.73;;;1.50;;
60030;SDS011;45901;47.600;9.890;2023-05-10T05:13:27;2.13;;;1.50;;
60030;SDS011;45901;47.600;9.890;2023-05-10T05:15:54;3.63;;;1.30;;
60030;SDS011;45901;47.600;9.890;2023-05-10T05:18:22;1.47;;;1.10;;
60030;SDS011;45901;47.600;9.890;2023-05-10T05:20:49;2.53;;;1.30;;
60030;SDS011;45901;47.600;9.890;2023-05-10T05:23:16;3.67;;;1.20;;
60030;SDS011;45901;47.600;9.890;2023-05-10T05:25:46;1.83;;;1.10;;
60030;SDS011;45901;47.600;9.890;2023-05-10T05:28:15;1.40;;;1.13;;
60030;SDS011;45901;47.600;9.890;2023-05-10T05:30:42;1.67;;;1.40;;
60030;SDS011;45901;47.600;9.890;2023-05-10T05:33:09;2.57;;;1.10;;
60030;SDS011;45901;47.600;9.890;2023-05-10T05:35:37;1.83;;;1.03;;
60030;SDS011;45901;47.600;9.890;2023-05-10T05:38:04;1.77;;;1.30;;
60030;SDS011;45901;47.600;9.890;2023-05-10T05:40:32;1.63;;;1.07;;
60030;SDS011;45901;47.600;9.890;2023-05-10T05:42:59;3.23;;;1.37;;
60030;SDS011;45901;47.600;9.890;2023-05-10T05:45:28;3.23;;;1.10;;
60030;SDS011;45901;47.600;9.890;2023-05-10T05:47:56;1.00;;;0.80;;
60030;SDS011;45901;47.600;9.890;2023-05-10T05:50:23;1.40;;;0.93;;
60030;SDS011;45901;47.600;9.890;2023-05-10T05:52:51;2.20;;;1.00;;
60030;SDS011;45901;47.600;9.890;2023-05-10T05:55:18;2.33;;;1.20;;
60030;SDS011;45901;47.600;9.890;2023-05-10T05:57:46;3.37;;;1.10;;
60030;SDS011;45901;47.600;9.890;2023-05-10T06:00:14;1.67;;;1.00;;
60030;SDS011;45901;47.600;9.890;2023-05-10T06:02:43;3.10;;;1.20;;
60030;SDS011;45901;47.600;9.890;2023-05-10T06:05:11;1.90;;;1.00;;
60030;SDS011;45901;47.600;9.890;2023-05-10T06:07:39;2.23;;;1.10;;
60030;SDS011;45901;47.600;9.890;2023-05-10T06:10:07;5.43;;;1.50;;
60030;SDS011;45901;47.600;9.890;2023-05-10T06:12:35;1.47;;;1.00;;
60030;SDS011;45901;47.600;9.890;2023-05-10T06:15:02;2.60;;;1.00;;
60030;SDS011;45901;47.600;9.890;2023-05-10T06:17:30;1.50;;;1.03;;
60030;SDS011;45901;47.600;9.890;2023-05-10T06:19:59;2.00;;;1.20;;
60030;SDS011;45901;47.600;9.890;2023-05-10T06:22:26;3.03;;;1.03;;
60030;SDS011;45901;47.600;9.890;2023-05-10T06:24:54;3.17;;;1.50;;
60030;SDS011;45901;47.600;9.890;2023-05-10T06:27:21;4.70;;;1.13;;
60030;SDS011;45901;47.600;9.890;2023-05-10T06:29:49;3.43;;;1.33;;
60030;SDS011;45901;47.600;9.890;2023-05-10T06:32:17;1.40;;;1.20;;
60030;SDS011;45901;47.600;9.890;2023-05-10T06:34:44;3.07;;;1.43;;
60030;SDS011;45901;47.600;9.890;2023-05-10T06:37:13;2.53;;;1.10;;
60030;SDS011;45901;47.600;9.890;2023-05-10T06:39:40;2.37;;;1.07;;
60030;SDS011;45901;47.600;9.890;2023-05-10T06:42:08;3.90;;;0.97;;
60030;SDS011;45901;47.600;9.890;2023-05-10T06:44:35;0.80;;;0.80;;
60030;SDS011;45901;47.600;9.890;2023-05-10T06:47:02;1.70;;;1.20;;
60030;SDS011;45901;47.600;9.890;2023-05-10T06:49:30;1.53;;;1.00;;
60030;SDS011;45901;47.600;9.890;2023-05-10T06:51:57;2.07;;;0.97;;
60030;SDS011;45901;47.600;9.890;2023-05-10T06:54:26;1.73;;;1.20;;
60030;SDS011;45901;47.600;9.890;2023-05-10T06:56:54;2.07;;;1.17;;
60030;SDS011;45901;47.600;9.890;2023-05-10T06:59:21;2.03;;;0.80;;
60030;SDS011;45901;47.600;9.890;2023-05-10T07:01:49;2.10;;;1.20;;
60030;SDS011;45901;47.600;9.890;2023-05-10T07:04:16;1.70;;;0.90;;
60030;SDS011;45901;47.600;9.890;2023-05-10T07:06:43;2.03;;;1.10;;
60030;SDS011;45901;47.600;9.890;2023-05-10T07:09:11;1.87;;;1.07;;
60030;SDS011;45901;47.600;9.890;2023-05-10T07:11:41;2.30;;;0.80;;
60030;SDS011;45901;47.600;9.890;2023-05-10T07:14:08;1.40;;;1.00;;
60030;SDS011;45901;47.600;9.890;2023-05-10T07:16:36;1.43;;;1.23;;
60030;SDS011;45901;47.600;9.890;2023-05-10T07:19:03;4.13;;;1.20;;
60030;SDS011;45901;47.600;9.890;2023-05-10T07:21:31;1.87;;;1.20;;
60030;SDS011;45901;47.600;9.890;2023-05-10T07:24:00;4.40;;;1.90;;
60030;SDS011;45901;47.600;9.890;2023-05-10T07:26:27;3.90;;;1.93;;
60030;SDS011;45901;47.600;9.890;2023-05-10T07:28:56;3.20;;;1.40;;
60030;SDS011;45901;47.600;9.890;2023-05-10T07:31:24;1.63;;;1.20;;
60030;SDS011;45901;47.600;9.890;2023-05-10T07:33:51;3.03;;;1.40;;
60030;SDS011;45901;47.600;9.890;2023-05-10T07:36:18;1.37;;;0.80;;
60030;SDS011;45901;47.600;9.890;2023-05-10T07:38:47;1.73;;;1.03;;
60030;SDS011;45901;47.600;9.890;2023-05-10T07:41:14;2.43;;;1.03;;
60030;SDS011;45901;47.600;9.890;2023-05-10T07:43:42;4.77;;;1.10;;
60030;SDS011;45901;47.600;9.890;2023-05-10T07:46:10;1.47;;;1.20;;
60030;SDS011;45901;47.600;9.890;2023-05-10T07:48:38;3.93;;;1.10;;
60030;SDS011;45901;47.600;9.890;2023-05-10T07:51:05;1.23;;;1.00;;
60030;SDS011;45901;47.600;9.890;2023-05-10T07:53:35;1.63;;;1.03;;
60030;SDS011;45901;47.600;9.890;2023-05-10T07:58:50;2.10;;;1.30;;
60030;SDS011;45901;47.600;9.890;2023-05-10T08:01:19;2.33;;;1.30;;
60030;SDS011;45901;47.600;9.890;2023-05-10T08:03:46;3.53;;;1.00;;
60030;SDS011;45901;47.600;9.890;2023-05-10T08:06:14;2.20;;;1.37;;
60030;SDS011;45901;47.600;9.890;2023-05-10T08:08:41;1.50;;;1.30;;
60030;SDS011;45901;47.600;9.890;2023-05-10T08:11:10;3.93;;;1.20;;
60030;SDS011;45901;47.600;9.890;2023-05-10T08:13:38;1.33;;;1.20;;
60030;SDS011;45901;47.600;9.890;2023-05-10T08:16:05;3.37;;;1.10;;
60030;SDS011;45901;47.600;9.890;2023-05-10T08:18:34;1.50;;;1.10;;
60030;SDS011;45901;47.600;9.890;2023-05-10T08:21:01;5.30;;;1.40;;
60030;SDS011;45901;47.600;9.890;2023-05-10T08:23:29;1.57;;;0.90;;
60030;SDS011;45901;47.600;9.890;2023-05-10T08:25:56;1.50;;;0.80;;
60030;SDS011;45901;47.600;9.890;2023-05-10T08:28:23;2.60;;;0.90;;
60030;SDS011;45901;47.600;9.890;2023-05-10T08:30:51;1.43;;;0.70;;
60030;SDS011;45901;47.600;9.890;2023-05-10T08:33:18;1.97;;;0.87;;
60030;SDS011;45901;47.600;9.890;2023-05-10T08:35:47;2.70;;;0.90;;
60030;SDS011;45901;47.600;9.890;2023-05-10T08:38:14;3.13;;;1.33;;
60030;SDS011;45901;47.600;9.890;2023-05-10T08:40:42;2.00;;;1.00;;
60030;SDS011;45901;47.600;9.890;2023-05-10T08:43:12;1.73;;;1.23;;
60030;SDS011;45901;47.600;9.890;2023-05-10T08:45:41;1.70;;;1.20;;
60030;SDS011;45901;47.600;9.890;2023-05-10T08:48:10;2.00;;;1.20;;
60030;SDS011;45901;47.600;9.890;2023-05-10T08:50:38;3.20;;;1.43;;
60030;SDS011;45901;47.600;9.890;2023-05-10T08:53:11;1.40;;;1.00;;
60030;SDS011;45901;47.600;9.890;2023-05-10T08:55:41;1.97;;;0.97;;
60030;SDS011;45901;47.600;9.890;2023-05-10T08:58:08;2.03;;;0.90;;
60030;SDS011;45901;47.600;9.890;2023-05-10T09:00:36;1.77;;;1.00;;
60030;SDS011;45901;47.600;9.890;2023-05-10T09:03:04;3.60;;;0.60;;
60030;SDS011;45901;47.600;9.890;2023-05-10T09:05:32;6.70;;;0.93;;
60030;SDS011;45901;47.600;9.890;2023-05-10T09:07:59;1.90;;;0.80;;
60030;SDS011;45901;47.600;9.890;2023-05-10T09:10:28;3.43;;;0.70;;
60030;SDS011;45901;47.600;9.890;2023-05-10T09:12:57;1.20;;;0.97;;
60030;SDS011;45901;47.600;9.890;2023-05-10T09:15:25;1.23;;;0.90;;
60030;SDS011;45901;47.600;9.890;2023-05-10T09:17:52;1.37;;;0.90;;
60030;SDS011;45901;47.600;9.890;2023-05-10T09:20:23;2.70;;;1.10;;
60030;SDS011;45901;47.600;9.890;2023-05-10T09:22:51;2.17;;;1.07;;
60030;SDS011;45901;47.600;9.890;2023-05-10T09:25:18;1.93;;;1.20;;
60030;SDS011;45901;47.600;9.890;2023-05-10T09:27:48;2.13;;;1.20;;
60030;SDS011;45901;47.600;9.890;2023-05-10T09:30:16;1.37;;;1.00;;
60030;SDS011;45901;47.600;9.890;2023-05-10T09:32:49;2.53;;;0.97;;
60030;SDS011;45901;47.600;9.890;2023-05-10T09:35:17;0.90;;;0.80;;
60030;SDS011;45901;47.600;9.890;2023-05-10T09:37:48;1.70;;;0.87;;
60030;SDS011;45901;47.600;9.890;2023-05-10T09:40:19;1.77;;;1.20;;
60030;SDS011;45901;47.600;9.890;2023-05-10T09:42:53;1.33;;;1.07;;
60030;SDS011;45901;47.600;9.890;2023-05-10T09:45:23;2.57;;;1.03;;
60030;SDS011;45901;47.600;9.890;2023-05-10T09:47:53;1.20;;;1.10;;
60030;SDS011;45901;47.600;9.890;2023-05-10T09:50:21;2.10;;;1.10;;
60030;SDS011;45901;47.600;9.890;2023-05-10T09:52:50;1.43;;;0.90;;
60030;SDS011;45901;47.600;9.890;2023-05-10T09:55:20;3.13;;;0.90;;
60030;SDS011;45901;47.600;9.890;2023-05-10T09:57:49;1.50;;;0.73;;
60030;SDS011;45901;47.600;9.890;2023-05-10T10:00:27;1.60;;;0.90;;
60030;SDS011;45901;47.600;9.890;2023-05-10T10:03:01;2.10;;;0.70;;
60030;SDS011;45901;47.600;9.890;2023-05-10T10:05:29;1.93;;;1.10;;
60030;SDS011;45901;47.600;9.890;2023-05-10T10:07:58;1.00;;;0.83;;
60030;SDS011;45901;47.600;9.890;2023-05-10T10:10:26;3.40;;;1.03;;
60030;SDS011;45901;47.600;9.890;2023-05-10T10:12:55;3.00;;;1.20;;
60030;SDS011;45901;47.600;9.890;2023-05-10T10:15:24;2.33;;;1.20;;
60030;SDS011;45901;47.600;9.890;2023-05-10T10:17:52;1.67;;;0.90;;
60030;SDS011;45901;47.600;9.890;2023-05-10T10:20:20;2.13;;;0.90;;
60030;SDS011;45901;47.600;9.890;2023-05-10T10:22:50;1.23;;;1.10;;
60030;SDS011;45901;47.600;9.890;2023-05-10T10:25:18;1.43;;;1.00;;
60030;SDS011;45901;47.600;9.890;2023-05-10T10:27:48;3.27;;;1.30;;
60030;SDS011;45901;47.600;9.890;2023-05-10T10:30:29;5.03;;;1.10;;
60030;SDS011;45901;47.600;9.890;2023-05-10T10:36:15;5.07;;;1.50;;
60030;SDS011;45901;47.600;9.890;2023-05-10T10:38:59;4.13;;;1.43;;
60030;SDS011;45901;47.600;9.890;2023-05-10T10:41:31;2.80;;;1.67;;
60030;SDS011;45901;47.600;9.890;2023-05-10T10:47:10;3.80;;;1.20;;
60030;SDS011;45901;47.600;9.890;2023-05-10T10:50:04;3.00;;;1.00;;
60030;SDS011;45901;47.600;9.890;2023-05-10T10:52:34;3.27;;;1.20;;
60030;SDS011;45901;47.600;9.890;2023-05-10T10:55:04;1.83;;;1.30;;
60030;SDS011;45901;47.600;9.890;2023-05-10T10:57:42;2.80;;;1.47;;
60030;SDS011;45901;47.600;9.890;2023-05-10T11:00:18;2.33;;;1.10;;
60030;SDS011;45901;47.600;9.890;2023-05-10T11:02:57;3.07;;;1.10;;
60030;SDS011;45901;47.600;9.890;2023-05-10T11:05:39;2.90;;;1.10;;
60030;SDS011;45901;47.600;9.890;2023-05-10T11:08:12;1.30;;;0.80;;
60030;SDS011;45901;47.600;9.890;2023-05-10T11:10:49;2.17;;;1.10;;
60030;SDS011;45901;47.600;9.890;2023-05-10T11:13:29;2.33;;;1.27;;
60030;SDS011;45901;47.600;9.890;2023-05-10T11:15:59;3.33;;;1.43;;
60030;SDS011;45901;47.600;9.890;2023-05-10T11:18:40;3.33;;;1.23;;
60030;SDS011;45901;47.600;9.890;2023-05-10T11:21:18;5.30;;;1.13;;
60030;SDS011;45901;47.600;9.890;2023-05-10T11:23:49;2.60;;;1.00;;
60030;SDS011;45901;47.600;9.890;2023-05-10T11:26:21;1.27;;;0.90;;
60030;SDS011;45901;47.600;9.890;2023-05-10T11:28:51;1.13;;;1.03;;
60030;SDS011;45901;47.600;9.890;2023-05-10T11:31:21;2.40;;;0.83;;
60030;SDS011;45901;47.600;9.890;2023-05-10T11:33:53;2.33;;;1.10;;
60030;SDS011;45901;47.600;9.890;2023-05-10T11:36:23;2.30;;;0.60;;
60030;SDS011;45901;47.600;9.890;2023-05-10T11:38:54;2.57;;;0.70;;
60030;SDS011;45901;47.600;9.890;2023-05-10T11:41:22;2.27;;;0.80;;
60030;SDS011;45901;47.600;9.890;2023-05-10T11:43:51;2.80;;;1.00;;
60030;SDS011;45901;47.600;9.890;2023-05-10T11:46:22;1.50;;;0.87;;
60030;SDS011;45901;47.600;9.890;2023-05-10T11:48:55;1.90;;;0.70;;
60030;SDS011;45901;47.600;9.890;2023-05-10T11:51:27;5.23;;;1.33;;
60030;SDS011;45901;47.600;9.890;2023-05-10T11:53:55;4.87;;;1.30;;
60030;SDS011;45901;47.600;9.890;2023-05-10T11:56:24;1.17;;;0.70;;
60030;SDS011;45901;47.600;9.890;2023-05-10T11:58:52;2.80;;;1.10;;
60030;SDS011;45901;47.600;9.890;2023-05-10T12:01:22;1.93;;;0.80;;
60030;SDS011;45901;47.600;9.890;2023-05-10T12:03:50;3.00;;;0.90;;
60030;SDS011;45901;47.600;9.890;2023-05-10T12:06:20;1.80;;;1.00;;
60030;SDS011;45901;47.600;9.890;2023-05-10T12:08:48;2.70;;;0.97;;
60030;SDS011;45901;47.600;9.890;2023-05-10T12:11:18;1.17;;;0.90;;
60030;SDS011;45901;47.600;9.890;2023-05-10T12:13:47;3.47;;;1.30;;
60030;SDS011;45901;47.600;9.890;2023-05-10T12:16:18;4.27;;;1.10;;
60030;SDS011;45901;47.600;9.890;2023-05-10T12:18:48;2.40;;;1.10;;
60030;SDS011;45901;47.600;9.890;2023-05-10T12:21:18;3.07;;;1.40;;
60030;SDS011;45901;47.600;9.890;2023-05-10T12:23:48;1.57;;;0.80;;
60030;SDS011;45901;47.600;9.890;2023-05-10T12:26:18;3.27;;;0.80;;
60030;SDS011;45901;47.600;9.890;2023-05-10T12:28:48;1.57;;;1.00;;
60030;SDS011;45901;47.600;9.890;2023-05-10T12:31:15;1.20;;;0.80;;
60030;SDS011;45901;47.600;9.890;2023-05-10T12:33:43;2.57;;;0.93;;
60030;SDS011;45901;47.600;9.890;2023-05-10T12:36:13;1.63;;;0.80;;
60030;SDS011;45901;47.600;9.890;2023-05-10T12:38:43;2.03;;;0.73;;
60030;SDS011;45901;47.600;9.890;2023-05-10T12:41:13;1.27;;;0.80;;
60030;SDS011;45901;47.600;9.890;2023-05-10T12:43:42;2.93;;;0.93;;
60030;SDS011;45901;47.600;9.890;2023-05-10T12:46:11;1.50;;;0.80;;
60030;SDS011;45901;47.600;9.890;2023-05-10T12:48:41;1.80;;;0.90;;
60030;SDS011;45901;47.600;9.890;2023-05-10T12:51:10;2.40;;;1.07;;
60030;SDS011;45901;47.600;9.890;2023-05-10T12:53:40;5.07;;;1.50;;
60030;SDS011;45901;47.600;9.890;2023-05-10T12:56:10;2.97;;;1.70;;
60030;SDS011;45901;47.600;9.890;2023-05-10T12:58:38;3.87;;;1.50;;
60030;SDS011;45901;47.600;9.890;2023-05-10T13:01:06;3.87;;;1.00;;
60030;SDS011;45901;47.600;9.890;2023-05-10T13:03:33;1.93;;;1.17;;
60030;SDS011;45901;47.600;9.890;2023-05-10T13:06:00;3.33;;;1.50;;
60030;SDS011;45901;47.600;9.890;2023-05-10T13:08:28;2.73;;;1.27;;
60030;SDS011;45901;47.600;9.890;2023-05-10T13:10:59;8.63;;;1.33;;
60030;SDS011;45901;47.600;9.890;2023-05-10T13:13:27;4.53;;;1.57;;
60030;SDS011;45901;47.600;9.890;2023-05-10T13:15:54;10.03;;;3.77;;
60030;SDS011;45901;47.600;9.890;2023-05-10T13:18:22;8.83;;;3.87;;
60030;SDS011;45901;47.600;9.890;2023-05-10T13:20:51;5.67;;;2.70;;
60030;SDS011;45901;47.600;9.890;2023-05-10T13:23:19;3.60;;;1.60;;
60030;SDS011;45901;47.600;9.890;2023-05-10T13:25:47;3.60;;;1.20;;
60030;SDS011;45901;47.600;9.890;2023-05-10T13:28:16;4.63;;;1.30;;
60030;SDS011;45901;47.600;9.890;2023-05-10T13:30:43;2.10;;;1.00;;
60030;SDS011;45901;47.600;9.890;2023-05-10T13:33:10;5.00;;;2.20;;
60030;SDS011;45901;47.600;9.890;2023-05-10T13:35:38;6.87;;;3.90;;
60030;SDS011;45901;47.600;9.890;2023-05-10T13:38:05;4.50;;;2.17;;
60030;SDS011;45901;47.600;9.890;2023-05-10T13:40:33;3.00;;;1.37;;
60030;SDS011;45901;47.600;9.890;2023-05-10T13:43:01;2.03;;;1.20;;
60030;SDS011;45901;47.600;9.890;2023-05-10T13:45:29;3.57;;;1.20;;
60030;SDS011;45901;47.600;9.890;2023-05-10T13:47:57;1.97;;;1.00;;
60030;SDS011;45901;47.600;9.890;2023-05-10T13:50:24;3.07;;;1.07;;
60030;SDS011;45901;47.600;9.890;2023-05-10T13:52:52;3.17;;;1.07;;
60030;SDS011;45901;47.600;9.890;2023-05-10T13:55:19;3.57;;;1.07;;
60030;SDS011;45901;47.600;9.890;2023-05-10T13:57:47;1.97;;;1.30;;
60030;SDS011;45901;47.600;9.890;2023-05-10T14:00:14;2.33;;;1.17;;
60030;SDS011;45901;47.600;9.890;2023-05-10T14:02:44;3.70;;;0.90;;
60030;SDS011;45901;47.600;9.890;2023-05-10T14:05:11;1.93;;;1.07;;
60030;SDS011;45901;47.600;9.890;2023-05-10T14:07:38;2.73;;;0.97;;
60030;SDS011;45901;47.600;9.890;2023-05-10T14:10:06;4.77;;;1.10;;
60030;SDS011;45901;47.600;9.890;2023-05-10T14:12:34;2.07;;;1.03;;
60030;SDS011;45901;47.600;9.890;2023-05-10T14:15:02;2.77;;;1.07;;
60030;SDS011;45901;47.600;9.890;2023-05-10T14:17:31;4.53;;;1.50;;
60030;SDS011;45901;47.600;9.890;2023-05-10T14:20:00;5.83;;;2.00;;
60030;SDS011;45901;47.600;9.890;2023-05-10T14:22:28;4.50;;;1.67;;
60030;SDS011;45901;47.600;9.890;2023-05-10T14:24:56;4.67;;;1.10;;
60030;SDS011;45901;47.600;9.890;2023-05-10T14:27:23;7.50;;;2.80;;
60030;SDS011;45901;47.600;9.890;2023-05-10T14:29:51;2.30;;;1.17;;
60030;SDS011;45901;47.600;9.890;2023-05-10T14:32:18;1.90;;;1.07;;
60030;SDS011;45901;47.600;9.890;2023-05-10T14:34:45;2.20;;;1.07;;
60030;SDS011;45901;47.600;9.890;2023-05-10T14:37:14;2.00;;;0.80;;
60030;SDS011;45901;47.600;9.890;2023-05-10T14:39:42;2.50;;;1.33;;
60030;SDS011;45901;47.600;9.890;2023-05-10T14:42:09;4.57;;;1.50;;
60030;SDS011;45901;47.600;9.890;2023-05-10T14:44:38;2.20;;;1.37;;
60030;SDS011;45901;47.600;9.890;2023-05-10T14:47:05;2.27;;;1.00;;
60030;SDS011;45901;47.600;9.890;2023-05-10T14:49:32;3.90;;;1.03;;
60030;SDS011;45901;47.600;9.890;2023-05-10T14:52:00;4.90;;;1.10;;
60030;SDS011;45901;47.600;9.890;2023-05-10T14:54:28;1.83;;;0.77;;
60030;SDS011;45901;47.600;9.890;2023-05-10T14:56:56;2.27;;;1.33;;
60030;SDS011;45901;47.600;9.890;2023-05-10T14:59:23;2.60;;;0.60;;
60030;SDS011;45901;47.600;9.890;2023-05-10T15:01:51;1.90;;;0.80;;
60030;SDS011;45901;47.600;9.890;2023-05-10T15:04:18;2.50;;;0.87;;
60030;SDS011;45901;47.600;9.890;2023-05-10T15:06:46;3.70;;;0.90;;
60030;SDS011;45901;47.600;9.890;2023-05-10T15:09:13;0.80;;;0.50;;
60030;SDS011;45901;47.600;9.890;2023-05-10T15:11:43;1.83;;;0.77;;
60030;SDS011;45901;47.600;9.890;2023-05-10T15:14:10;2.53;;;0.80;;
60030;SDS011;45901;47.600;9.890;2023-05-10T15:16:37;3.80;;;1.10;;